Time;durP1;ratioP1;P1;durP2;ratioP2;P2;SDS_P1;SDS_P2;PMS_P1;PMS_P2;Temp;Humidity;BMP_temperature;BMP_pressure;BME280_temperature;BME280_humidity;BME280_pressure;Samples;Min_cycle;Max_cycle;Signal;HPM_P1;HPM_P2
2021/12/18 00:00:09;;;;;;;20.02;7.43;;;7.50;56.90;;;;;;6247753;28;20397;-68
2021/12/18 00:03:17;;;;;;;15.30;6.32;;;7.50;56.90;;;;;;6254498;28;20045;-67
2021/12/18 00:06:18;;;;;;;18.17;6.80;;;7.60;56.80;;;;;;6272901;28;20461;-69
2021/12/18 00:09:19;;;;;;;17.40;7.20;;;7.60;56.80;;;;;;6268941;28;20044;-68
2021/12/18 00:12:20;;;;;;;14.00;6.30;;;7.60;56.70;;;;;;6247306;28;20033;-68
2021/12/18 00:15:24;;;;;;;16.83;6.55;;;7.50;56.70;;;;;;6262354;28;20037;-68
2021/12/18 00:18:25;;;;;;;15.25;6.20;;;7.50;56.70;;;;;;6209778;28;20041;-68
2021/12/18 00:21:26;;;;;;;13.68;6.20;;;7.50;56.80;;;;;;6199341;28;20347;-67
2021/12/18 00:24:27;;;;;;;17.23;7.25;;;7.50;56.80;;;;;;6248151;28;20045;-67
2021/12/18 00:27:28;;;;;;;19.60;6.95;;;7.60;56.80;;;;;;6246597;28;20190;-69
2021/12/18 00:30:30;;;;;;;14.48;6.85;;;7.60;56.70;;;;;;6227334;28;20062;-67
2021/12/18 00:33:32;;;;;;;18.30;7.05;;;7.60;56.70;;;;;;6230569;28;20203;-68
2021/12/18 00:36:33;;;;;;;18.05;6.75;;;7.60;56.70;;;;;;6247590;28;20045;-68
2021/12/18 00:39:38;;;;;;;12.98;6.75;;;7.60;56.70;;;;;;6245333;28;20462;-67
2021/12/18 00:42:48;;;;;;;21.10;7.78;;;7.60;56.80;;;;;;6247109;28;20053;-67
2021/12/18 00:45:49;;;;;;;16.30;7.25;;;7.70;56.80;;;;;;6220876;28;20461;-67
2021/12/18 00:48:50;;;;;;;17.27;6.70;;;7.70;56.80;;;;;;6253283;28;20037;-67
2021/12/18 00:51:51;;;;;;;17.95;7.40;;;7.70;56.70;;;;;;6255553;28;20319;-68
2021/12/18 00:54:53;;;;;;;15.15;6.72;;;7.70;56.70;;;;;;6271608;28;20033;-68
2021/12/18 00:57:54;;;;;;;15.30;7.53;;;7.70;56.60;;;;;;6272689;28;20037;-67
2021/12/18 01:00:55;;;;;;;25.80;8.93;;;7.80;56.70;;;;;;6246539;28;20370;-69
2021/12/18 01:03:56;;;;;;;15.40;7.40;;;7.70;56.60;;;;;;6246878;28;20045;-68
2021/12/18 01:06:57;;;;;;;17.25;7.57;;;7.70;56.70;;;;;;6257657;28;20128;-67
2021/12/18 01:10:22;;;;;;;18.45;7.28;;;7.70;56.70;;;;;;6270950;28;20031;-68
2021/12/18 01:13:27;;;;;;;17.55;7.80;;;7.70;56.80;;;;;;6269322;28;20049;-68
2021/12/18 01:16:40;;;;;;;23.35;7.57;;;7.60;56.80;;;;;;6251283;28;20047;-68
2021/12/18 01:23:00;;;;;;;21.33;7.93;;;7.60;56.90;;;;;;6269047;28;20033;-68
2021/12/18 01:26:05;;;;;;;20.58;6.72;;;7.70;56.90;;;;;;6246626;28;20042;-68
2021/12/18 01:29:06;;;;;;;18.92;7.80;;;7.70;56.90;;;;;;6244227;28;20574;-68
2021/12/18 01:32:09;;;;;;;16.33;7.68;;;7.60;56.80;;;;;;6266300;28;20401;-68
2021/12/18 01:35:10;;;;;;;17.35;7.60;;;7.60;56.90;;;;;;6257807;28;20425;-68
2021/12/18 01:38:12;;;;;;;24.17;9.00;;;7.60;56.90;;;;;;6269573;28;20037;-68
2021/12/18 01:41:15;;;;;;;21.20;8.27;;;7.60;57.00;;;;;;6230171;28;20048;-68
2021/12/18 01:44:53;;;;;;;20.17;7.75;;;7.60;57.00;;;;;;6261080;28;20032;-68
2021/12/18 01:54:19;;;;;;;18.17;7.55;;;7.50;57.10;;;;;;6266986;28;20144;-68
2021/12/18 01:57:20;;;;;;;20.83;7.47;;;7.50;57.20;;;;;;6269975;28;20399;-68
2021/12/18 02:00:26;;;;;;;16.75;7.60;;;7.40;57.30;;;;;;6267846;28;20031;-69
2021/12/18 02:03:27;;;;;;;21.98;8.20;;;7.40;57.40;;;;;;6255041;28;20044;-67
2021/12/18 02:06:28;;;;;;;19.40;7.93;;;7.40;57.50;;;;;;6249409;28;20052;-67
2021/12/18 02:12:58;;;;;;;19.05;7.38;;;7.40;57.60;;;;;;6251570;28;20033;-68
2021/12/18 02:19:52;;;;;;;21.85;7.55;;;7.30;57.60;;;;;;6269229;28;20462;-68
2021/12/18 02:22:55;;;;;;;16.05;7.60;;;7.30;57.70;;;;;;6221555;28;20042;-68
2021/12/18 02:25:56;;;;;;;20.10;8.15;;;7.30;57.70;;;;;;6262939;28;20350;-68
2021/12/18 02:29:00;;;;;;;18.58;7.55;;;7.30;57.70;;;;;;6240328;28;20048;-68
2021/12/18 02:32:02;;;;;;;21.85;8.10;;;7.30;57.70;;;;;;6262595;28;20040;-67
2021/12/18 02:35:05;;;;;;;21.00;7.68;;;7.30;57.70;;;;;;6244670;28;20053;-68
2021/12/18 02:42:08;;;;;;;13.80;6.07;;;7.20;57.70;;;;;;6222342;28;20450;-68
2021/12/18 02:45:09;;;;;;;20.77;8.07;;;7.30;57.80;;;;;;6244081;28;20052;-68
2021/12/18 02:48:10;;;;;;;18.88;8.13;;;7.30;57.90;;;;;;6219543;28;20068;-67
2021/12/18 02:51:12;;;;;;;18.10;6.82;;;7.30;57.80;;;;;;6241837;28;20045;-67
2021/12/18 02:54:13;;;;;;;14.40;6.97;;;7.30;57.70;;;;;;6245546;28;20076;-67
2021/12/18 02:57:14;;;;;;;14.85;6.07;;;7.30;57.70;;;;;;6245235;28;20029;-67
2021/12/18 03:00:17;;;;;;;18.67;7.18;;;7.20;57.80;;;;;;6251000;28;20052;-67
2021/12/18 03:03:19;;;;;;;18.55;7.32;;;7.20;57.80;;;;;;6236589;28;20041;-67
2021/12/18 03:25:35;;;;;;;18.88;8.13;;;7.30;57.60;;;;;;6273354;28;20123;-67
2021/12/18 03:28:36;;;;;;;15.98;6.70;;;7.30;57.50;;;;;;6273476;28;20033;-68
2021/12/18 03:31:37;;;;;;;17.63;7.95;;;7.30;57.50;;;;;;6271224;28;20033;-69
2021/12/18 03:34:39;;;;;;;13.45;6.22;;;7.30;57.50;;;;;;6224767;28;20444;-67
2021/12/18 03:37:41;;;;;;;16.88;6.55;;;7.30;57.60;;;;;;6244764;28;20478;-67
2021/12/18 03:40:42;;;;;;;17.30;7.13;;;7.40;57.50;;;;;;6266410;28;20033;-69
2021/12/18 03:43:43;;;;;;;17.73;7.20;;;7.30;57.40;;;;;;6256143;28;20414;-68
2021/12/18 03:46:44;;;;;;;17.45;6.95;;;7.30;57.40;;;;;;6274857;28;20117;-67
2021/12/18 03:49:45;;;;;;;15.30;6.07;;;7.30;57.30;;;;;;6256107;28;20512;-67
2021/12/18 03:52:46;;;;;;;21.38;6.32;;;7.20;57.40;;;;;;6274700;28;20055;-68
2021/12/18 03:55:47;;;;;;;16.88;7.68;;;7.30;57.50;;;;;;6273245;28;20490;-68
2021/12/18 03:58:48;;;;;;;15.77;6.55;;;7.20;57.30;;;;;;6274718;28;20028;-67
2021/12/18 04:01:50;;;;;;;14.55;5.20;;;7.30;57.30;;;;;;6271735;28;20033;-67
2021/12/18 04:04:51;;;;;;;17.25;7.53;;;7.30;57.20;;;;;;6225241;28;20514;-67
2021/12/18 04:07:52;;;;;;;16.20;6.85;;;7.20;57.20;;;;;;6256360;28;20045;-67
2021/12/18 04:10:53;;;;;;;18.00;6.80;;;7.20;57.20;;;;;;6255321;28;20048;-67
2021/12/18 04:13:55;;;;;;;15.63;5.90;;;7.10;57.10;;;;;;6265706;28;20454;-67
2021/12/18 04:16:56;;;;;;;16.05;6.00;;;7.10;57.20;;;;;;6272763;28;20086;-68
2021/12/18 04:19:57;;;;;;;14.35;6.07;;;7.10;57.20;;;;;;6270506;28;20041;-68
2021/12/18 04:22:58;;;;;;;15.57;5.63;;;7.10;57.20;;;;;;6246564;28;20045;-68
2021/12/18 04:26:00;;;;;;;13.77;6.65;;;7.10;57.20;;;;;;6248356;28;20040;-68
2021/12/18 04:29:02;;;;;;;11.43;5.93;;;7.10;57.20;;;;;;6258667;28;20056;-68
2021/12/18 04:32:03;;;;;;;16.08;5.88;;;7.10;57.20;;;;;;6209715;28;20046;-68
2021/12/18 04:35:05;;;;;;;13.60;5.10;;;7.00;57.20;;;;;;6247120;28;20473;-67
2021/12/18 04:38:06;;;;;;;12.07;5.38;;;7.00;57.10;;;;;;6266747;28;20068;-67
2021/12/18 04:41:10;;;;;;;12.65;5.68;;;7.00;57.20;;;;;;6273971;28;20033;-67
2021/12/18 04:44:11;;;;;;;13.80;6.60;;;6.90;57.30;;;;;;6229539;28;20051;-68
2021/12/18 04:47:12;;;;;;;15.07;6.68;;;6.90;57.40;;;;;;6224496;28;20046;-67
2021/12/18 04:50:13;;;;;;;15.02;6.05;;;6.90;57.50;;;;;;6223295;28;20042;-67
2021/12/18 04:53:14;;;;;;;24.17;7.82;;;6.90;57.50;;;;;;6222857;28;20042;-68
2021/12/18 04:56:15;;;;;;;12.63;6.22;;;6.90;57.50;;;;;;6222027;28;20539;-67
2021/12/18 04:59:17;;;;;;;9.52;4.93;;;6.90;57.30;;;;;;6229697;28;20030;-67
2021/12/18 05:02:22;;;;;;;19.45;6.70;;;6.90;57.20;;;;;;6222222;28;20065;-67
2021/12/18 05:05:23;;;;;;;12.73;5.90;;;6.80;57.10;;;;;;6240240;28;20038;-67
2021/12/18 05:08:24;;;;;;;14.77;6.50;;;6.80;57.20;;;;;;6246201;28;20044;-67
2021/12/18 05:11:25;;;;;;;15.05;6.57;;;6.70;57.30;;;;;;6239248;28;20048;-69
2021/12/18 05:14:26;;;;;;;10.88;4.80;;;6.70;57.40;;;;;;6249155;28;20382;-68
2021/12/18 05:17:27;;;;;;;13.15;5.30;;;6.70;57.50;;;;;;6271568;28;20063;-67
2021/12/18 05:20:28;;;;;;;15.63;5.53;;;6.70;57.50;;;;;;6247613;28;20044;-67
2021/12/18 05:23:29;;;;;;;24.13;7.78;;;6.70;57.50;;;;;;6228722;28;20033;-68
2021/12/18 05:26:30;;;;;;;12.07;5.65;;;6.70;57.50;;;;;;6263360;28;20033;-69
2021/12/18 05:29:31;;;;;;;11.50;5.07;;;6.70;57.50;;;;;;6254454;28;20043;-67
2021/12/18 05:32:33;;;;;;;17.50;5.72;;;6.60;57.60;;;;;;6261680;28;20037;-67
2021/12/18 05:35:34;;;;;;;12.23;5.28;;;6.60;57.50;;;;;;6247021;28;20041;-67
2021/12/18 05:38:35;;;;;;;16.77;5.97;;;6.60;57.60;;;;;;6262031;28;20033;-67
2021/12/18 05:41:37;;;;;;;13.43;6.15;;;6.60;57.60;;;;;;6270927;28;20070;-67
2021/12/18 05:44:38;;;;;;;12.10;5.07;;;6.60;57.60;;;;;;6270792;28;20041;-68
2021/12/18 05:47:39;;;;;;;16.13;7.25;;;6.50;57.60;;;;;;6272169;28;20059;-68
2021/12/18 05:50:45;;;;;;;18.10;6.40;;;6.50;57.60;;;;;;6255647;28;20323;-68
2021/12/18 05:53:46;;;;;;;17.15;6.07;;;6.50;57.60;;;;;;6262799;28;20367;-68
2021/12/18 05:56:47;;;;;;;13.18;5.80;;;6.50;57.70;;;;;;6270869;28;20029;-68
2021/12/18 05:59:48;;;;;;;11.60;5.65;;;6.50;57.70;;;;;;6270379;28;20112;-68
2021/12/18 06:02:50;;;;;;;13.15;4.95;;;6.40;57.60;;;;;;6209271;28;20085;-68
2021/12/18 06:05:52;;;;;;;17.38;6.93;;;6.40;57.70;;;;;;6230175;28;20068;-68
2021/12/18 06:08:53;;;;;;;12.23;5.22;;;6.40;57.70;;;;;;6248374;28;20516;-67
2021/12/18 06:11:54;;;;;;;11.05;4.93;;;6.40;57.70;;;;;;6247571;28;20486;-69
2021/12/18 06:14:55;;;;;;;16.27;5.45;;;6.40;57.70;;;;;;6272607;28;20120;-67
2021/12/18 06:17:57;;;;;;;15.50;6.18;;;6.40;57.80;;;;;;6271606;28;20513;-69
2021/12/18 06:20:58;;;;;;;11.52;5.60;;;6.40;57.70;;;;;;6254973;28;20033;-68
2021/12/18 06:23:59;;;;;;;12.52;4.15;;;6.40;57.70;;;;;;6257381;28;20107;-68
2021/12/18 06:27:00;;;;;;;18.67;6.32;;;6.40;57.70;;;;;;6273319;28;20029;-68
2021/12/18 06:30:02;;;;;;;17.27;5.70;;;6.40;57.70;;;;;;6257597;28;20163;-68
2021/12/18 06:33:03;;;;;;;14.88;5.53;;;6.50;57.60;;;;;;6243759;28;20040;-67
2021/12/18 06:36:05;;;;;;;11.55;5.13;;;6.50;57.40;;;;;;6242647;28;20437;-67
2021/12/18 06:39:06;;;;;;;12.27;5.43;;;6.50;57.30;;;;;;6273306;28;20037;-66
2021/12/18 06:42:07;;;;;;;12.05;5.45;;;6.50;57.30;;;;;;6270597;28;20060;-67
2021/12/18 06:45:08;;;;;;;14.38;5.55;;;6.60;57.40;;;;;;6271897;28;20041;-67
2021/12/18 06:48:10;;;;;;;19.98;6.18;;;6.60;57.10;;;;;;6272949;28;20033;-67
2021/12/18 06:51:11;;;;;;;16.90;4.95;;;6.50;57.10;;;;;;6271082;28;20041;-68
2021/12/18 06:54:12;;;;;;;13.85;4.53;;;6.50;57.10;;;;;;6225098;28;20103;-69
2021/12/18 06:57:13;;;;;;;17.30;6.22;;;6.50;57.00;;;;;;6246446;28;20455;-68
2021/12/18 07:00:16;;;;;;;12.40;5.90;;;6.50;57.10;;;;;;6249540;28;20045;-68
2021/12/18 07:03:16;;;;;;;15.27;6.03;;;6.50;57.20;;;;;;6241476;28;20038;-68
2021/12/18 07:06:18;;;;;;;13.13;5.05;;;6.50;57.20;;;;;;6258958;28;20458;-68
2021/12/18 07:09:19;;;;;;;17.63;6.25;;;6.50;57.10;;;;;;6247461;28;20037;-68
2021/12/18 07:12:20;;;;;;;13.82;5.18;;;6.60;57.00;;;;;;6255129;28;20040;-68
2021/12/18 07:15:21;;;;;;;10.25;5.22;;;6.60;57.00;;;;;;6234663;28;20056;-67
2021/12/18 07:18:22;;;;;;;14.13;6.05;;;6.60;56.80;;;;;;6271828;28;20450;-67
2021/12/18 07:21:23;;;;;;;13.65;4.65;;;6.60;56.80;;;;;;6270703;28;20408;-67
2021/12/18 07:24:24;;;;;;;13.15;6.80;;;6.60;56.70;;;;;;6254963;28;20049;-67
2021/12/18 07:27:25;;;;;;;10.43;5.25;;;6.50;56.70;;;;;;6270018;28;20061;-67
2021/12/18 07:30:27;;;;;;;13.15;5.68;;;6.50;56.80;;;;;;6223953;28;20111;-68
2021/12/18 07:33:28;;;;;;;16.05;5.72;;;6.50;56.80;;;;;;6257215;28;20052;-68
2021/12/18 07:36:29;;;;;;;14.73;5.47;;;6.40;56.80;;;;;;6247772;28;20048;-68
2021/12/18 07:39:30;;;;;;;14.15;4.70;;;6.40;56.90;;;;;;6205995;28;20382;-67
2021/12/18 07:42:32;;;;;;;13.05;6.10;;;6.40;56.80;;;;;;6248148;28;20033;-67
2021/12/18 07:45:34;;;;;;;16.73;6.68;;;6.50;56.90;;;;;;6276760;28;20099;-67
2021/12/18 07:48:35;;;;;;;14.38;6.10;;;6.50;56.90;;;;;;6275387;28;20040;-67
2021/12/18 07:51:37;;;;;;;14.77;6.38;;;6.50;56.80;;;;;;6275520;28;20033;-68
2021/12/18 07:54:38;;;;;;;14.63;7.35;;;6.60;56.80;;;;;;6275696;28;20033;-67
2021/12/18 07:57:40;;;;;;;14.50;5.25;;;6.60;56.80;;;;;;6256279;28;20037;-67
2021/12/18 08:00:41;;;;;;;17.50;5.35;;;6.60;56.70;;;;;;6253772;28;20067;-68
2021/12/18 08:03:42;;;;;;;13.20;5.80;;;6.60;56.60;;;;;;6258204;28;20056;-68
2021/12/18 08:06:43;;;;;;;19.65;6.65;;;6.50;56.40;;;;;;6261197;28;20037;-68
2021/12/18 08:09:44;;;;;;;15.20;5.60;;;6.50;56.50;;;;;;6258716;28;20110;-70
2021/12/18 08:12:45;;;;;;;8.70;4.60;;;6.60;56.60;;;;;;6258321;28;20482;-71
2021/12/18 08:15:46;;;;;;;15.15;6.43;;;6.60;56.50;;;;;;6275319;28;20072;-70
2021/12/18 08:18:48;;;;;;;14.38;5.97;;;6.70;56.50;;;;;;6275197;28;20040;-70
2021/12/18 08:21:48;;;;;;;15.35;6.18;;;6.70;56.30;;;;;;6274600;28;20103;-70
2021/12/18 08:24:49;;;;;;;15.85;6.85;;;6.70;56.20;;;;;;6275033;28;20462;-70
2021/12/18 08:27:50;;;;;;;12.75;6.72;;;6.80;56.20;;;;;;6274737;28;20041;-69
2021/12/18 08:30:51;;;;;;;11.98;4.65;;;6.90;56.20;;;;;;6232141;28;20049;-70
2021/12/18 08:33:52;;;;;;;15.75;6.72;;;6.90;56.00;;;;;;6224541;28;20037;-71
2021/12/18 08:36:55;;;;;;;14.18;5.68;;;6.90;55.80;;;;;;6231619;28;20064;-70
2021/12/18 08:39:56;;;;;;;20.95;5.45;;;6.90;55.60;;;;;;6257829;28;20040;-68
2021/12/18 08:42:57;;;;;;;14.85;6.13;;;6.90;55.60;;;;;;6275888;28;20041;-69
2021/12/18 08:45:58;;;;;;;14.25;6.38;;;6.90;55.60;;;;;;6275245;28;20094;-68
2021/12/18 08:49:00;;;;;;;16.83;5.72;;;6.80;55.60;;;;;;6273386;28;20025;-70
2021/12/18 08:52:01;;;;;;;15.23;5.45;;;6.80;55.70;;;;;;6274823;28;20040;-68
2021/12/18 08:55:03;;;;;;;16.10;5.75;;;6.80;55.70;;;;;;6273937;28;20480;-71
2021/12/18 08:58:04;;;;;;;14.75;5.43;;;6.80;55.70;;;;;;6271325;28;20048;-70
2021/12/18 09:01:05;;;;;;;13.55;5.90;;;6.80;55.70;;;;;;6250213;28;20038;-71
2021/12/18 09:04:07;;;;;;;17.35;6.10;;;6.90;55.70;;;;;;6251254;28;20069;-69
2021/12/18 09:07:08;;;;;;;12.75;5.32;;;6.90;55.50;;;;;;6249087;28;20453;-70
2021/12/18 09:10:10;;;;;;;11.82;5.43;;;6.90;55.50;;;;;;6248745;28;20045;-71
2021/12/18 09:13:11;;;;;;;13.25;5.80;;;6.80;55.50;;;;;;6250645;28;20136;-70
2021/12/18 09:16:12;;;;;;;15.75;5.97;;;6.80;55.50;;;;;;6265859;28;20062;-70
2021/12/18 09:19:13;;;;;;;14.80;5.97;;;6.80;55.60;;;;;;6231435;28;20041;-70
2021/12/18 09:22:15;;;;;;;11.90;5.28;;;6.90;55.60;;;;;;6254623;28;20040;-70
2021/12/18 09:25:16;;;;;;;17.65;5.18;;;6.90;55.60;;;;;;6274143;28;20048;-70
2021/12/18 09:28:17;;;;;;;14.13;5.88;;;6.90;55.60;;;;;;6267880;28;20038;-70
2021/12/18 09:31:18;;;;;;;21.55;7.15;;;7.00;55.70;;;;;;6249161;28;20139;-70
2021/12/18 09:34:19;;;;;;;15.10;6.63;;;7.10;55.50;;;;;;6262413;28;20450;-69
2021/12/18 09:37:20;;;;;;;14.35;6.70;;;7.10;55.40;;;;;;6273710;28;20052;-69
2021/12/18 09:40:22;;;;;;;20.67;6.32;;;7.00;55.20;;;;;;6273971;28;20061;-71
2021/12/18 09:43:23;;;;;;;11.30;4.65;;;7.00;55.20;;;;;;6272115;28;20099;-69
2021/12/18 09:46:24;;;;;;;15.85;6.40;;;6.90;55.10;;;;;;6254484;28;20040;-70
2021/12/18 09:49:27;;;;;;;16.40;6.45;;;6.90;55.20;;;;;;6272615;28;20386;-70
2021/12/18 09:52:30;;;;;;;13.00;4.57;;;6.90;55.30;;;;;;6271205;28;20483;-70
2021/12/18 09:55:31;;;;;;;24.83;6.63;;;6.90;55.30;;;;;;6271765;28;20029;-71
2021/12/18 09:58:33;;;;;;;13.23;5.22;;;6.90;55.40;;;;;;6248913;28;20526;-70
2021/12/18 10:01:35;;;;;;;15.73;6.75;;;7.00;55.40;;;;;;6271495;28;20361;-70
2021/12/18 10:04:38;;;;;;;13.85;5.82;;;7.10;55.20;;;;;;6248857;28;20037;-71
2021/12/18 10:07:39;;;;;;;17.02;5.60;;;7.20;55.10;;;;;;6242276;28;20036;-70
2021/12/18 10:11:03;;;;;;;13.57;5.95;;;7.30;54.90;;;;;;6271905;28;20465;-69
2021/12/18 10:14:04;;;;;;;13.88;5.55;;;7.30;54.70;;;;;;6269575;28;20466;-70
2021/12/18 10:17:38;;;;;;;15.50;6.65;;;7.40;54.60;;;;;;6268635;28;20041;-69
2021/12/18 10:20:39;;;;;;;19.10;7.32;;;7.40;54.50;;;;;;6266864;28;20174;-70
2021/12/18 10:23:42;;;;;;;22.35;9.07;;;7.50;55.10;;;;;;6249632;28;20044;-70
2021/12/18 10:26:45;;;;;;;25.60;8.73;;;7.60;54.40;;;;;;6252879;28;20032;-70
2021/12/18 10:29:48;;;;;;;16.40;6.53;;;7.70;54.30;;;;;;6269405;28;20068;-69
2021/12/18 10:33:00;;;;;;;12.95;5.72;;;7.80;54.10;;;;;;6253534;28;20040;-70
2021/12/18 10:36:02;;;;;;;13.73;5.95;;;7.90;53.80;;;;;;6245189;28;20049;-71
2021/12/18 10:39:04;;;;;;;21.50;6.25;;;7.90;53.60;;;;;;6246254;28;20128;-70
2021/12/18 10:42:15;;;;;;;17.10;6.20;;;8.00;53.50;;;;;;6247183;28;20076;-71
2021/12/18 10:45:20;;;;;;;15.43;6.47;;;8.00;53.50;;;;;;6246936;28;20125;-71
2021/12/18 10:48:21;;;;;;;15.90;5.93;;;8.00;53.40;;;;;;6261932;28;20048;-70
2021/12/18 10:51:23;;;;;;;13.80;5.45;;;8.00;53.30;;;;;;6269447;28;20036;-70
2021/12/18 10:54:24;;;;;;;16.05;5.75;;;8.00;53.20;;;;;;6260183;28;20065;-70
2021/12/18 10:57:25;;;;;;;22.15;6.97;;;8.00;53.20;;;;;;6255394;28;20107;-70
2021/12/18 11:00:51;;;;;;;23.02;7.93;;;8.10;53.30;;;;;;6270711;28;20036;-70
2021/12/18 11:03:52;;;;;;;20.08;6.43;;;8.10;52.90;;;;;;6246318;28;20136;-71
2021/12/18 11:06:55;;;;;;;11.48;5.45;;;8.20;52.80;;;;;;6271007;28;20106;-70
2021/12/18 11:16:35;;;;;;;15.93;6.00;;;8.20;52.80;;;;;;6270348;28;20048;-70
2021/12/18 11:19:36;;;;;;;16.90;5.75;;;8.30;52.70;;;;;;6259464;28;20453;-71
2021/12/18 11:22:38;;;;;;;15.35;6.13;;;8.30;52.70;;;;;;6259048;28;20033;-71
2021/12/18 11:25:41;;;;;;;13.65;6.25;;;8.40;52.60;;;;;;6274725;28;20052;-71
2021/12/18 11:28:48;;;;;;;20.90;7.20;;;8.50;52.50;;;;;;6273288;28;20033;-70
2021/12/18 11:31:49;;;;;;;17.05;7.13;;;8.60;52.30;;;;;;6249025;28;20029;-71
2021/12/18 11:34:54;;;;;;;14.18;7.00;;;8.70;52.00;;;;;;6243980;28;20132;-70
2021/12/18 11:38:00;;;;;;;13.38;6.25;;;8.70;52.10;;;;;;6248552;28;20041;-71
2021/12/18 11:41:02;;;;;;;22.10;7.60;;;8.70;52.00;;;;;;6248409;28;20051;-71
2021/12/18 11:44:27;;;;;;;14.48;6.30;;;8.70;52.00;;;;;;6268305;28;20106;-71
2021/12/18 11:47:37;;;;;;;18.42;6.28;;;8.70;52.00;;;;;;6235773;28;20467;-71
2021/12/18 11:50:39;;;;;;;20.92;6.57;;;8.80;52.00;;;;;;6247213;28;20072;-72
2021/12/18 11:53:41;;;;;;;13.93;5.85;;;8.90;51.90;;;;;;6248231;28;20122;-70
2021/12/18 11:56:49;;;;;;;16.83;7.40;;;8.90;51.60;;;;;;6263861;28;20498;-71
2021/12/18 11:59:50;;;;;;;20.70;8.50;;;9.00;51.50;;;;;;6255270;28;20065;-70
2021/12/18 12:02:53;;;;;;;18.23;7.63;;;9.00;51.50;;;;;;6227525;28;20041;-71
2021/12/18 12:05:57;;;;;;;22.40;7.68;;;9.00;51.50;;;;;;6247551;28;20048;-72
2021/12/18 12:09:36;;;;;;;17.63;7.72;;;9.10;51.40;;;;;;6237576;28;20493;-70
2021/12/18 12:12:53;;;;;;;17.23;7.80;;;9.20;51.40;;;;;;6238021;28;20033;-71
2021/12/18 12:15:54;;;;;;;21.08;7.88;;;9.30;51.30;;;;;;6261009;28;20041;-72
2021/12/18 12:19:06;;;;;;;19.48;7.90;;;9.30;51.20;;;;;;6268391;28;20052;-71
2021/12/18 12:22:12;;;;;;;18.15;6.82;;;9.30;51.10;;;;;;6270043;28;20048;-71
2021/12/18 12:25:30;;;;;;;20.23;7.03;;;9.40;51.10;;;;;;6269058;28;20037;-71
2021/12/18 12:28:31;;;;;;;18.23;7.97;;;9.40;51.00;;;;;;6263917;28;20043;-71
2021/12/18 12:31:34;;;;;;;18.65;7.45;;;9.40;50.90;;;;;;6270866;28;20102;-72
2021/12/18 12:34:37;;;;;;;16.45;6.93;;;9.40;50.90;;;;;;6237070;28;20049;-71
2021/12/18 12:37:40;;;;;;;19.85;7.38;;;9.40;50.90;;;;;;6226632;28;20058;-71
2021/12/18 12:40:42;;;;;;;18.85;8.38;;;9.40;50.80;;;;;;6271563;28;20041;-70
2021/12/18 12:43:43;;;;;;;20.98;8.15;;;9.50;50.80;;;;;;6233994;28;20085;-72
2021/12/18 12:46:45;;;;;;;21.27;7.53;;;9.50;50.80;;;;;;6271951;28;20040;-70
2021/12/18 12:49:52;;;;;;;18.23;7.28;;;9.50;50.90;;;;;;6276528;28;20025;-71
2021/12/18 12:52:55;;;;;;;17.60;7.63;;;9.50;50.70;;;;;;6262093;28;20053;-71
2021/12/18 12:55:56;;;;;;;22.38;7.35;;;9.50;50.60;;;;;;6242308;28;20060;-70
2021/12/18 12:59:25;;;;;;;21.40;7.80;;;9.50;50.60;;;;;;6254126;28;20037;-70
2021/12/18 13:02:31;;;;;;;17.92;8.18;;;9.50;50.70;;;;;;6261088;28;20133;-71
2021/12/18 13:05:48;;;;;;;23.23;7.82;;;9.50;50.90;;;;;;6225959;28;20045;-70
2021/12/18 13:08:50;;;;;;;21.20;8.93;;;9.50;50.90;;;;;;6238341;28;20036;-71
2021/12/18 13:12:03;;;;;;;25.05;9.48;;;9.60;50.80;;;;;;6250213;28;20040;-72
2021/12/18 13:15:05;;;;;;;16.88;7.43;;;9.60;50.60;;;;;;6266996;28;20116;-71
2021/12/18 13:18:08;;;;;;;21.48;9.13;;;9.60;50.50;;;;;;6267550;28;20052;-71
2021/12/18 13:21:21;;;;;;;19.25;7.88;;;9.50;50.70;;;;;;6242375;28;20068;-71
2021/12/18 13:24:23;;;;;;;20.90;9.38;;;9.50;50.60;;;;;;6261960;28;20135;-70
2021/12/18 13:27:24;;;;;;;19.55;7.85;;;9.40;50.60;;;;;;6245673;28;20041;-71
2021/12/18 13:30:25;;;;;;;18.20;7.88;;;9.40;50.70;;;;;;6238374;28;20040;-71
2021/12/18 13:33:28;;;;;;;16.65;7.20;;;9.40;50.90;;;;;;6253103;28;20033;-70
2021/12/18 13:36:50;;;;;;;25.33;8.43;;;9.40;51.00;;;;;;6242658;28;20140;-71
2021/12/18 13:39:53;;;;;;;22.08;8.93;;;9.40;51.00;;;;;;6241754;28;20045;-71
2021/12/18 13:43:07;;;;;;;20.17;7.88;;;9.40;51.00;;;;;;6233553;28;20062;-71
2021/12/18 13:46:13;;;;;;;17.75;8.52;;;9.50;51.60;;;;;;6268714;28;20036;-70
2021/12/18 13:49:14;;;;;;;18.08;7.57;;;9.50;51.00;;;;;;6265162;28;20454;-70
2021/12/18 13:52:37;;;;;;;20.60;8.05;;;9.50;50.80;;;;;;6268472;28;20040;-71
2021/12/18 13:55:44;;;;;;;17.73;8.80;;;9.50;50.90;;;;;;6266709;28;20085;-70
2021/12/18 13:58:49;;;;;;;26.63;9.73;;;9.40;50.90;;;;;;6259140;28;20119;-69
2021/12/18 14:01:51;;;;;;;25.80;9.90;;;9.40;51.10;;;;;;6226719;28;20091;-70
2021/12/18 14:04:53;;;;;;;22.27;8.50;;;9.40;51.20;;;;;;6240402;28;20041;-69
2021/12/18 14:07:54;;;;;;;19.55;9.00;;;9.40;51.10;;;;;;6243678;28;20072;-71
2021/12/18 14:10:59;;;;;;;18.60;8.07;;;9.40;51.20;;;;;;6244086;28;20072;-71
2021/12/18 14:14:04;;;;;;;23.00;8.77;;;9.40;51.20;;;;;;6243724;28;20041;-70
2021/12/18 14:17:11;;;;;;;20.90;7.65;;;9.50;51.10;;;;;;6229022;28;20054;-71
2021/12/18 14:20:14;;;;;;;23.63;8.27;;;9.50;50.90;;;;;;6225120;28;20030;-71
2021/12/18 14:23:15;;;;;;;20.90;7.88;;;9.40;50.90;;;;;;6225709;28;20450;-71
2021/12/18 14:26:25;;;;;;;18.55;8.00;;;9.40;51.00;;;;;;6236494;28;20417;-70
2021/12/18 14:29:38;;;;;;;22.88;8.18;;;9.30;51.10;;;;;;6244138;28;20086;-71
2021/12/18 14:32:39;;;;;;;18.73;8.07;;;9.10;51.20;;;;;;6240199;28;20422;-72
2021/12/18 14:35:53;;;;;;;20.48;8.57;;;9.20;51.40;;;;;;6240835;28;20049;-71
2021/12/18 14:38:58;;;;;;;21.58;9.18;;;9.20;51.40;;;;;;6242240;28;20029;-72
2021/12/18 14:42:10;;;;;;;20.25;8.38;;;9.30;51.50;;;;;;6245051;28;20037;-72
2021/12/18 14:45:19;;;;;;;22.98;8.70;;;9.20;51.60;;;;;;6243245;28;20042;-71
2021/12/18 14:48:32;;;;;;;24.15;10.15;;;9.20;51.60;;;;;;6258389;28;20111;-71
2021/12/18 14:51:33;;;;;;;21.92;9.20;;;9.20;51.60;;;;;;6267429;28;20099;-71
2021/12/18 14:54:50;;;;;;;20.02;8.38;;;9.20;51.60;;;;;;6247700;28;20359;-70
2021/12/18 14:58:11;;;;;;;25.95;10.23;;;9.10;51.50;;;;;;6246322;28;20037;-71
2021/12/18 15:01:20;;;;;;;25.60;11.25;;;9.10;51.70;;;;;;6243871;28;20044;-71
2021/12/18 15:04:21;;;;;;;22.42;9.00;;;9.10;51.80;;;;;;6219055;28;20455;-71
2021/12/18 15:07:27;;;;;;;25.98;9.15;;;9.20;51.80;;;;;;6247122;28;20128;-72
2021/12/18 15:10:51;;;;;;;21.15;9.30;;;9.20;51.80;;;;;;6269388;28;20096;-71
2021/12/18 15:14:02;;;;;;;19.35;8.85;;;9.10;51.70;;;;;;6270213;28;20041;-73
2021/12/18 15:17:04;;;;;;;20.77;9.75;;;9.00;51.60;;;;;;6272448;28;20120;-72
2021/12/18 15:20:06;;;;;;;19.67;7.60;;;9.00;51.80;;;;;;6260228;28;20470;-70
2021/12/18 15:23:07;;;;;;;21.48;9.35;;;8.90;52.00;;;;;;6239873;28;20471;-71
2021/12/18 15:26:08;;;;;;;24.48;8.85;;;8.90;52.10;;;;;;6232625;28;20430;-71
2021/12/18 15:29:13;;;;;;;15.57;8.35;;;8.90;52.20;;;;;;6255429;28;20025;-70
2021/12/18 15:32:16;;;;;;;17.17;8.18;;;8.90;52.20;;;;;;6226166;28;20030;-71
2021/12/18 15:35:17;;;;;;;15.93;8.10;;;8.90;52.20;;;;;;6257806;28;20052;-70
2021/12/18 15:38:20;;;;;;;18.83;8.52;;;8.90;52.20;;;;;;6269806;28;20033;-73
2021/12/18 15:41:26;;;;;;;28.55;12.07;;;8.90;52.20;;;;;;6244538;28;20469;-70
2021/12/18 15:44:27;;;;;;;27.17;10.88;;;8.90;52.20;;;;;;6241991;28;20041;-71
2021/12/18 15:47:28;;;;;;;21.60;9.73;;;9.00;52.30;;;;;;6212443;28;20056;-72
2021/12/18 15:50:29;;;;;;;25.90;10.00;;;8.90;52.10;;;;;;6244304;28;20427;-73
2021/12/18 15:53:31;;;;;;;18.88;8.25;;;8.90;52.20;;;;;;6249103;28;20471;-72
2021/12/18 15:56:33;;;;;;;29.95;9.45;;;8.80;52.90;;;;;;6257864;28;20446;-73
2021/12/18 15:59:34;;;;;;;22.77;8.35;;;8.80;52.40;;;;;;6257711;28;20044;-71
2021/12/18 16:02:35;;;;;;;19.83;9.55;;;8.70;52.40;;;;;;6241406;28;20064;-72
2021/12/18 16:05:39;;;;;;;23.85;10.20;;;8.70;52.50;;;;;;6264071;28;20349;-72
2021/12/18 16:08:42;;;;;;;26.55;9.68;;;8.70;53.20;;;;;;6238142;28;20056;-72
2021/12/18 16:11:43;;;;;;;21.70;8.48;;;8.70;52.70;;;;;;6247031;28;20052;-73
2021/12/18 16:14:46;;;;;;;24.75;10.60;;;8.70;52.70;;;;;;6258487;28;20078;-72
2021/12/18 16:17:48;;;;;;;23.75;7.93;;;8.70;52.70;;;;;;6272243;28;20033;-72
2021/12/18 16:20:50;;;;;;;23.75;9.98;;;8.60;52.70;;;;;;6272483;28;20052;-72
2021/12/18 16:23:51;;;;;;;18.10;7.70;;;8.50;52.70;;;;;;6271953;28;20036;-71
2021/12/18 16:26:53;;;;;;;22.58;9.48;;;8.50;53.00;;;;;;6270523;28;20059;-71
2021/12/18 16:29:54;;;;;;;21.80;9.45;;;8.40;53.10;;;;;;6269816;28;20120;-72
2021/12/18 16:32:55;;;;;;;20.45;8.00;;;8.40;53.20;;;;;;6260508;28;20033;-73
2021/12/18 16:35:57;;;;;;;19.88;8.07;;;8.40;53.30;;;;;;6268721;28;20459;-72
2021/12/18 16:38:58;;;;;;;20.75;8.10;;;8.40;53.40;;;;;;6271570;28;20418;-72